sensor_id;sensor_type;location;lat;lon;timestamp;pressure;altitude;pressure_sealevel;temperature;humidity
9521;BME280;4798;41.574;23.734;2022-07-03T00:01:51;95637.06;;;23.70;100.00
9521;BME280;4798;41.574;23.734;2022-07-03T00:04:19;95643.41;;;23.90;100.00
9521;BME280;4798;41.574;23.734;2022-07-03T00:06:50;95643.84;;;23.64;100.00
9521;BME280;4798;41.574;23.734;2022-07-03T00:09:20;95645.66;;;23.60;100.00
9521;BME280;4798;41.574;23.734;2022-07-03T00:11:49;95647.06;;;23.42;100.00
9521;BME280;4798;41.574;23.734;2022-07-03T00:14:18;95636.22;;;23.54;100.00
9521;BME280;4798;41.574;23.734;2022-07-03T00:16:46;95640.00;;;23.65;100.00
9521;BME280;4798;41.574;23.734;2022-07-03T00:19:15;95631.88;;;23.65;100.00
9521;BME280;4798;41.574;23.734;2022-07-03T00:21:45;95616.16;;;23.55;100.00
9521;BME280;4798;41.574;23.734;2022-07-03T00:24:23;95637.63;;;23.64;100.00
9521;BME280;4798;41.574;23.734;2022-07-03T00:26:53;95645.19;;;23.58;100.00
9521;BME280;4798;41.574;23.734;2022-07-03T00:29:23;95611.66;;;22.83;100.00
9521;BME280;4798;41.574;23.734;2022-07-03T00:31:54;95651.59;;;23.14;100.00
9521;BME280;4798;41.574;23.734;2022-07-03T00:34:24;95643.03;;;22.51;100.00
9521;BME280;4798;41.574;23.734;2022-07-03T00:36:55;95644.59;;;22.40;100.00
9521;BME280;4798;41.574;23.734;2022-07-03T00:39:26;95646.72;;;22.35;100.00
9521;BME280;4798;41.574;23.734;2022-07-03T00:41:59;95644.16;;;22.50;100.00
9521;BME280;4798;41.574;23.734;2022-07-03T00:44:29;95652.72;;;22.52;100.00
9521;BME280;4798;41.574;23.734;2022-07-03T00:46:58;95649.56;;;22.50;100.00
9521;BME280;4798;41.574;23.734;2022-07-03T00:49:27;95637.88;;;22.95;100.00
9521;BME280;4798;41.574;23.734;2022-07-03T00:51:58;95634.44;;;23.34;100.00
9521;BME280;4798;41.574;23.734;2022-07-03T00:54:34;95650.03;;;23.13;100.00
9521;BME280;4798;41.574;23.734;2022-07-03T00:57:03;95638.97;;;22.45;100.00
9521;BME280;4798;41.574;23.734;2022-07-03T00:59:33;95642.69;;;22.53;100.00
9521;BME280;4798;41.574;23.734;2022-07-03T01:02:04;95639.41;;;22.35;100.00
9521;BME280;4798;41.574;23.734;2022-07-03T01:04:41;95630.50;;;22.10;100.00
9521;BME280;4798;41.574;23.734;2022-07-03T01:07:25;95633.63;;;22.12;100.00
9521;BME280;4798;41.574;23.734;2022-07-03T01:10:07;95624.75;;;22.24;100.00
9521;BME280;4798;41.574;23.734;2022-07-03T01:12:52;95626.69;;;22.24;100.00
9521;BME280;4798;41.574;23.734;2022-07-03T01:15:32;95617.66;;;22.20;100.00
9521;BME280;4798;41.574;23.734;2022-07-03T01:18:18;95625.91;;;22.23;100.00
9521;BME280;4798;41.574;23.734;2022-07-03T01:20:55;95624.09;;;22.39;100.00
9521;BME280;4798;41.574;23.734;2022-07-03T01:23:35;95623.13;;;22.56;100.00
9521;BME280;4798;41.574;23.734;2022-07-03T01:26:11;95623.47;;;22.79;100.00
9521;BME280;4798;41.574;23.734;2022-07-03T01:28:43;95626.59;;;22.93;100.00
9521;BME280;4798;41.574;23.734;2022-07-03T01:31:17;95632.25;;;22.88;100.00
9521;BME280;4798;41.574;23.734;2022-07-03T01:33:50;95629.06;;;23.10;100.00
9521;BME280;4798;41.574;23.734;2022-07-03T01:36:19;95631.00;;;23.09;100.00
9521;BME280;4798;41.574;23.734;2022-07-03T01:38:50;95634.59;;;23.13;100.00
9521;BME280;4798;41.574;23.734;2022-07-03T01:41:21;95633.59;;;23.06;100.00
9521;BME280;4798;41.574;23.734;2022-07-03T01:43:55;95638.50;;;23.40;100.00
9521;BME280;4798;41.574;23.734;2022-07-03T01:46:28;95641.06;;;23.49;100.00
9521;BME280;4798;41.574;23.734;2022-07-03T01:48:57;95642.25;;;23.63;100.00
9521;BME280;4798;41.574;23.734;2022-07-03T01:51:27;95635.91;;;23.71;100.00
9521;BME280;4798;41.574;23.734;2022-07-03T01:53:57;95620.59;;;23.63;100.00
9521;BME280;4798;41.574;23.734;2022-07-03T01:56:32;95646.59;;;23.28;100.00
9521;BME280;4798;41.574;23.734;2022-07-03T01:59:01;95649.34;;;23.40;100.00
9521;BME280;4798;41.574;23.734;2022-07-03T02:01:33;95645.88;;;23.03;100.00
9521;BME280;4798;41.574;23.734;2022-07-03T02:04:15;95650.59;;;22.58;100.00
9521;BME280;4798;41.574;23.734;2022-07-03T02:06:55;95651.84;;;22.72;100.00
9521;BME280;4798;41.574;23.734;2022-07-03T02:09:33;95648.38;;;22.84;100.00
9521;BME280;4798;41.574;23.734;2022-07-03T02:12:10;95645.44;;;22.65;100.00
9521;BME280;4798;41.574;23.734;2022-07-03T02:14:40;95655.22;;;23.06;100.00
9521;BME280;4798;41.574;23.734;2022-07-03T02:17:16;95653.59;;;23.29;100.00
9521;BME280;4798;41.574;23.734;2022-07-03T02:19:52;95657.22;;;23.45;100.00
9521;BME280;4798;41.574;23.734;2022-07-03T02:22:25;95657.75;;;23.51;100.00
9521;BME280;4798;41.574;23.734;2022-07-03T02:25:00;95655.16;;;23.54;100.00
9521;BME280;4798;41.574;23.734;2022-07-03T02:27:43;95653.19;;;23.03;100.00
9521;BME280;4798;41.574;23.734;2022-07-03T02:30:12;95655.34;;;23.09;100.00
9521;BME280;4798;41.574;23.734;2022-07-03T02:32:44;95648.22;;;23.17;100.00
9521;BME280;4798;41.574;23.734;2022-07-03T02:35:17;95547.56;;;22.59;100.00
9521;BME280;4798;41.574;23.734;2022-07-03T02:37:50;95669.41;;;23.39;100.00
9521;BME280;4798;41.574;23.734;2022-07-03T02:40:26;95664.97;;;23.47;100.00
9521;BME280;4798;41.574;23.734;2022-07-03T02:43:02;95564.13;;;22.82;100.00
9521;BME280;4798;41.574;23.734;2022-07-03T02:45:43;95598.31;;;23.14;100.00
9521;BME280;4798;41.574;23.734;2022-07-03T02:48:27;95653.03;;;23.48;100.00
9521;BME280;4798;41.574;23.734;2022-07-03T02:51:02;95672.09;;;23.39;100.00
9521;BME280;4798;41.574;23.734;2022-07-03T02:53:38;95672.44;;;23.38;100.00
9521;BME280;4798;41.574;23.734;2022-07-03T02:56:14;95629.75;;;22.95;100.00
9521;BME280;4798;41.574;23.734;2022-07-03T02:58:57;95621.41;;;23.12;100.00
9521;BME280;4798;41.574;23.734;2022-07-03T03:01:33;95675.91;;;23.26;100.00
9521;BME280;4798;41.574;23.734;2022-07-03T03:04:08;95670.31;;;23.07;100.00
9521;BME280;4798;41.574;23.734;2022-07-03T03:06:41;95685.84;;;22.98;100.00
9521;BME280;4798;41.574;23.734;2022-07-03T03:09:14;95679.56;;;22.94;100.00
9521;BME280;4798;41.574;23.734;2022-07-03T03:11:45;95689.38;;;22.86;100.00
9521;BME280;4798;41.574;23.734;2022-07-03T03:14:20;95682.84;;;22.99;100.00
9521;BME280;4798;41.574;23.734;2022-07-03T03:16:51;95674.59;;;22.96;100.00
9521;BME280;4798;41.574;23.734;2022-07-03T03:19:21;95683.28;;;23.01;100.00
9521;BME280;4798;41.574;23.734;2022-07-03T03:21:57;95616.78;;;22.52;100.00
9521;BME280;4798;41.574;23.734;2022-07-03T03:24:27;95688.34;;;22.79;100.00
9521;BME280;4798;41.574;23.734;2022-07-03T03:26:58;95693.00;;;22.57;100.00
9521;BME280;4798;41.574;23.734;2022-07-03T03:29:29;95688.88;;;22.72;100.00
9521;BME280;4798;41.574;23.734;2022-07-03T03:31:57;95680.69;;;22.81;100.00
9521;BME280;4798;41.574;23.734;2022-07-03T03:34:31;95692.50;;;22.88;100.00
9521;BME280;4798;41.574;23.734;2022-07-03T03:37:00;95679.56;;;22.94;100.00
9521;BME280;4798;41.574;23.734;2022-07-03T03:39:29;95692.28;;;22.81;100.00
9521;BME280;4798;41.574;23.734;2022-07-03T03:41:58;95700.97;;;22.87;100.00
9521;BME280;4798;41.574;23.734;2022-07-03T03:44:32;95690.81;;;22.84;100.00
9521;BME280;4798;41.574;23.734;2022-07-03T03:47:00;95694.41;;;23.00;100.00
9521;BME280;4798;41.574;23.734;2022-07-03T03:49:29;95700.59;;;23.00;100.00
9521;BME280;4798;41.574;23.734;2022-07-03T03:51:57;95706.00;;;23.12;100.00
9521;BME280;4798;41.574;23.734;2022-07-03T03:54:26;95705.34;;;23.03;100.00
9521;BME280;4798;41.574;23.734;2022-07-03T03:56:54;95709.72;;;23.08;100.00
9521;BME280;4798;41.574;23.734;2022-07-03T03:59:23;95712.34;;;23.16;100.00
9521;BME280;4798;41.574;23.734;2022-07-03T04:01:52;95712.22;;;23.01;100.00
9521;BME280;4798;41.574;23.734;2022-07-03T04:04:21;95704.78;;;23.22;100.00
9521;BME280;4798;41.574;23.734;2022-07-03T04:06:49;95702.41;;;23.32;100.00
9521;BME280;4798;41.574;23.734;2022-07-03T04:09:18;95710.31;;;23.38;100.00
9521;BME280;4798;41.574;23.734;2022-07-03T04:11:46;95704.31;;;23.44;100.00
9521;BME280;4798;41.574;23.734;2022-07-03T04:14:15;95700.50;;;23.45;100.00
9521;BME280;4798;41.574;23.734;2022-07-03T04:16:43;95706.00;;;23.49;100.00
9521;BME280;4798;41.574;23.734;2022-07-03T04:19:13;95709.25;;;23.54;100.00
9521;BME280;4798;41.574;23.734;2022-07-03T04:21:41;95702.94;;;23.62;100.00
9521;BME280;4798;41.574;23.734;2022-07-03T04:24:10;95704.97;;;23.65;100.00
9521;BME280;4798;41.574;23.734;2022-07-03T04:26:38;95698.28;;;23.75;100.00
9521;BME280;4798;41.574;23.734;2022-07-03T04:29:06;95706.16;;;23.80;100.00
9521;BME280;4798;41.574;23.734;2022-07-03T04:31:35;95700.31;;;23.78;100.00
9521;BME280;4798;41.574;23.734;2022-07-03T04:34:03;95655.19;;;23.42;100.00
9521;BME280;4798;41.574;23.734;2022-07-03T04:36:33;95702.47;;;23.72;100.00
9521;BME280;4798;41.574;23.734;2022-07-03T04:39:02;95703.03;;;23.66;100.00
9521;BME280;4798;41.574;23.734;2022-07-03T04:41:30;95709.03;;;23.59;100.00
9521;BME280;4798;41.574;23.734;2022-07-03T04:43:58;95707.22;;;23.51;100.00
9521;BME280;4798;41.574;23.734;2022-07-03T04:46:27;95714.88;;;23.61;100.00
9521;BME280;4798;41.574;23.734;2022-07-03T04:48:55;95714.91;;;23.89;100.00
9521;BME280;4798;41.574;23.734;2022-07-03T04:51:24;95710.72;;;23.91;100.00
9521;BME280;4798;41.574;23.734;2022-07-03T04:53:54;95707.78;;;23.96;100.00
9521;BME280;4798;41.574;23.734;2022-07-03T04:56:22;95699.94;;;24.07;100.00
9521;BME280;4798;41.574;23.734;2022-07-03T04:58:50;95702.03;;;24.26;100.00
9521;BME280;4798;41.574;23.734;2022-07-03T05:01:19;95656.25;;;23.65;100.00
9521;BME280;4798;41.574;23.734;2022-07-03T05:03:47;95699.13;;;24.19;100.00
9521;BME280;4798;41.574;23.734;2022-07-03T05:06:16;95699.38;;;24.14;100.00
9521;BME280;4798;41.574;23.734;2022-07-03T05:08:46;95697.16;;;24.47;100.00
9521;BME280;4798;41.574;23.734;2022-07-03T05:11:16;95695.34;;;24.08;100.00
9521;BME280;4798;41.574;23.734;2022-07-03T05:13:44;95701.91;;;23.94;100.00
9521;BME280;4798;41.574;23.734;2022-07-03T05:16:13;95698.31;;;23.63;100.00
9521;BME280;4798;41.574;23.734;2022-07-03T05:18:42;95696.91;;;24.09;100.00
9521;BME280;4798;41.574;23.734;2022-07-03T05:21:10;95630.91;;;24.13;100.00
9521;BME280;4798;41.574;23.734;2022-07-03T05:23:38;95692.19;;;24.06;100.00
9521;BME280;4798;41.574;23.734;2022-07-03T05:26:07;95691.09;;;23.94;100.00
9521;BME280;4798;41.574;23.734;2022-07-03T05:28:37;95690.56;;;24.17;100.00
9521;BME280;4798;41.574;23.734;2022-07-03T05:31:05;95702.34;;;23.96;100.00
9521;BME280;4798;41.574;23.734;2022-07-03T05:33:34;95707.34;;;23.94;100.00
9521;BME280;4798;41.574;23.734;2022-07-03T05:36:03;95691.53;;;23.96;100.00
9521;BME280;4798;41.574;23.734;2022-07-03T05:38:31;95696.13;;;24.36;100.00
9521;BME280;4798;41.574;23.734;2022-07-03T05:41:17;95699.72;;;24.71;100.00
9521;BME280;4798;41.574;23.734;2022-07-03T05:43:47;95697.09;;;25.21;100.00
9521;BME280;4798;41.574;23.734;2022-07-03T05:46:15;95701.28;;;25.35;100.00
9521;BME280;4798;41.574;23.734;2022-07-03T05:48:44;95693.38;;;25.45;100.00
9521;BME280;4798;41.574;23.734;2022-07-03T05:51:12;95709.34;;;25.47;100.00
9521;BME280;4798;41.574;23.734;2022-07-03T05:53:41;95685.22;;;25.80;100.00
9521;BME280;4798;41.574;23.734;2022-07-03T05:56:09;95680.78;;;25.72;100.00
9521;BME280;4798;41.574;23.734;2022-07-03T05:58:37;95689.19;;;26.43;100.00
9521;BME280;4798;41.574;23.734;2022-07-03T06:01:09;95693.56;;;26.71;100.00
9521;BME280;4798;41.574;23.734;2022-07-03T06:03:38;95683.84;;;26.92;96.65
9521;BME280;4798;41.574;23.734;2022-07-03T06:06:06;95688.09;;;27.16;98.10
9521;BME280;4798;41.574;23.734;2022-07-03T06:08:35;95675.28;;;27.17;98.19
9521;BME280;4798;41.574;23.734;2022-07-03T06:11:04;95676.69;;;27.07;97.07
9521;BME280;4798;41.574;23.734;2022-07-03T06:13:32;95671.44;;;26.95;97.83
9521;BME280;4798;41.574;23.734;2022-07-03T06:16:01;95682.69;;;26.71;100.00
9521;BME280;4798;41.574;23.734;2022-07-03T06:18:31;95674.03;;;27.10;99.93
9521;BME280;4798;41.574;23.734;2022-07-03T06:20:59;95674.38;;;27.35;100.00
9521;BME280;4798;41.574;23.734;2022-07-03T06:23:28;95664.09;;;27.78;99.08
9521;BME280;4798;41.574;23.734;2022-07-03T06:26:12;95657.44;;;27.45;96.88
9521;BME280;4798;41.574;23.734;2022-07-03T06:28:41;95665.84;;;27.93;97.17
9521;BME280;4798;41.574;23.734;2022-07-03T06:31:10;95668.69;;;28.03;93.21
9521;BME280;4798;41.574;23.734;2022-07-03T06:33:40;95677.34;;;28.09;79.70
9521;BME280;4798;41.574;23.734;2022-07-03T06:36:09;95665.22;;;28.03;86.17
9521;BME280;4798;41.574;23.734;2022-07-03T06:38:37;95622.59;;;28.24;82.38
9521;BME280;4798;41.574;23.734;2022-07-03T06:41:05;95659.66;;;29.17;83.69
9521;BME280;4798;41.574;23.734;2022-07-03T06:43:34;95659.53;;;29.57;84.82
9521;BME280;4798;41.574;23.734;2022-07-03T06:46:02;95660.63;;;29.42;81.27
9521;BME280;4798;41.574;23.734;2022-07-03T06:48:31;95660.63;;;29.42;77.60
9521;BME280;4798;41.574;23.734;2022-07-03T06:51:01;95650.69;;;29.81;83.85
9521;BME280;4798;41.574;23.734;2022-07-03T06:53:29;95654.16;;;29.75;79.22
9521;BME280;4798;41.574;23.734;2022-07-03T06:55:58;95647.69;;;29.32;76.71
9521;BME280;4798;41.574;23.734;2022-07-03T06:58:26;95641.59;;;29.60;80.13
9521;BME280;4798;41.574;23.734;2022-07-03T07:00:55;95644.09;;;29.89;56.71
9521;BME280;4798;41.574;23.734;2022-07-03T07:03:23;95646.56;;;30.30;57.60
9521;BME280;4798;41.574;23.734;2022-07-03T07:05:52;95641.13;;;30.44;67.43
9521;BME280;4798;41.574;23.734;2022-07-03T07:08:21;95638.78;;;30.39;68.29
9521;BME280;4798;41.574;23.734;2022-07-03T07:10:50;95640.41;;;30.75;68.97
9521;BME280;4798;41.574;23.734;2022-07-03T07:13:18;95633.38;;;31.16;63.31
9521;BME280;4798;41.574;23.734;2022-07-03T07:15:47;95629.81;;;31.55;56.73
9521;BME280;4798;41.574;23.734;2022-07-03T07:18:15;95624.66;;;31.64;59.88
9521;BME280;4798;41.574;23.734;2022-07-03T07:20:44;95620.41;;;31.49;43.81
9521;BME280;4798;41.574;23.734;2022-07-03T07:23:12;95622.69;;;31.71;39.52
9521;BME280;4798;41.574;23.734;2022-07-03T07:25:42;95617.47;;;31.98;38.32
9521;BME280;4798;41.574;23.734;2022-07-03T07:28:10;95607.31;;;31.95;44.69
9521;BME280;4798;41.574;23.734;2022-07-03T07:30:39;95615.16;;;32.00;43.35
9521;BME280;4798;41.574;23.734;2022-07-03T07:33:08;95608.66;;;32.35;41.41
9521;BME280;4798;41.574;23.734;2022-07-03T07:35:36;95609.56;;;32.18;35.66
9521;BME280;4798;41.574;23.734;2022-07-03T07:38:05;95609.50;;;32.28;38.70
9521;BME280;4798;41.574;23.734;2022-07-03T07:40:35;95599.28;;;32.29;40.50
9521;BME280;4798;41.574;23.734;2022-07-03T07:43:05;95598.47;;;32.35;40.91
9521;BME280;4798;41.574;23.734;2022-07-03T07:45:34;95593.22;;;32.62;43.08
9521;BME280;4798;41.574;23.734;2022-07-03T07:48:03;95594.28;;;32.75;42.08
9521;BME280;4798;41.574;23.734;2022-07-03T07:50:32;95591.69;;;33.02;41.70
9521;BME280;4798;41.574;23.734;2022-07-03T07:53:00;95594.81;;;32.59;36.68
9521;BME280;4798;41.574;23.734;2022-07-03T07:55:29;95595.47;;;32.74;36.57
9521;BME280;4798;41.574;23.734;2022-07-03T07:58:00;95551.44;;;32.37;35.76
9521;BME280;4798;41.574;23.734;2022-07-03T08:00:31;95594.59;;;32.84;36.41
9521;BME280;4798;41.574;23.734;2022-07-03T08:02:59;95586.16;;;33.46;34.71
9521;BME280;4798;41.574;23.734;2022-07-03T08:05:45;95499.50;;;33.01;34.21
9521;BME280;4798;41.574;23.734;2022-07-03T08:08:16;95570.09;;;33.78;33.76
9521;BME280;4798;41.574;23.734;2022-07-03T08:10:47;95582.22;;;33.81;34.49
9521;BME280;4798;41.574;23.734;2022-07-03T08:13:17;95592.41;;;33.13;32.08
9521;BME280;4798;41.574;23.734;2022-07-03T08:15:47;95589.59;;;33.57;31.08
9521;BME280;4798;41.574;23.734;2022-07-03T08:18:19;95538.91;;;33.58;35.52
9521;BME280;4798;41.574;23.734;2022-07-03T08:20:47;95581.63;;;33.97;33.34
9521;BME280;4798;41.574;23.734;2022-07-03T08:23:16;95582.81;;;33.96;33.05
9521;BME280;4798;41.574;23.734;2022-07-03T08:25:45;95582.19;;;34.15;35.98
9521;BME280;4798;41.574;23.734;2022-07-03T08:28:17;95580.34;;;34.85;30.11
9521;BME280;4798;41.574;23.734;2022-07-03T08:30:47;95579.50;;;34.65;34.86
9521;BME280;4798;41.574;23.734;2022-07-03T08:33:15;95579.25;;;34.56;35.92
9521;BME280;4798;41.574;23.734;2022-07-03T08:35:44;95576.56;;;34.75;35.45
9521;BME280;4798;41.574;23.734;2022-07-03T08:38:12;95570.47;;;34.87;36.64
9521;BME280;4798;41.574;23.734;2022-07-03T08:40:41;95581.72;;;34.73;33.63
9521;BME280;4798;41.574;23.734;2022-07-03T08:43:11;95570.44;;;35.14;34.07
9521;BME280;4798;41.574;23.734;2022-07-03T08:45:40;95570.59;;;35.27;31.34
9521;BME280;4798;41.574;23.734;2022-07-03T08:48:11;95572.03;;;34.65;31.23
9521;BME280;4798;41.574;23.734;2022-07-03T08:50:43;95573.88;;;34.45;32.15
9521;BME280;4798;41.574;23.734;2022-07-03T08:53:13;95571.06;;;34.75;31.51
9521;BME280;4798;41.574;23.734;2022-07-03T08:55:41;95565.94;;;34.24;32.35
9521;BME280;4798;41.574;23.734;2022-07-03T08:58:11;95561.25;;;34.47;32.42
9521;BME280;4798;41.574;23.734;2022-07-03T09:00:41;95554.75;;;35.31;32.47
9521;BME280;4798;41.574;23.734;2022-07-03T09:03:12;95563.69;;;34.69;30.54
9521;BME280;4798;41.574;23.734;2022-07-03T09:05:42;95549.00;;;34.52;31.01
9521;BME280;4798;41.574;23.734;2022-07-03T09:08:10;95546.13;;;35.29;31.06
9521;BME280;4798;41.574;23.734;2022-07-03T09:10:39;95556.06;;;34.53;30.37
9521;BME280;4798;41.574;23.734;2022-07-03T09:13:07;95564.59;;;34.85;32.38
9521;BME280;4798;41.574;23.734;2022-07-03T09:15:36;95545.13;;;35.78;30.51
9521;BME280;4798;41.574;23.734;2022-07-03T09:18:05;95538.94;;;35.74;29.35
9521;BME280;4798;41.574;23.734;2022-07-03T09:20:37;95544.84;;;35.14;29.02
9521;BME280;4798;41.574;23.734;2022-07-03T09:23:11;95538.34;;;35.00;29.64
9521;BME280;4798;41.574;23.734;2022-07-03T09:25:54;95525.56;;;35.53;28.22
9521;BME280;4798;41.574;23.734;2022-07-03T09:28:24;95530.78;;;36.22;28.21
9521;BME280;4798;41.574;23.734;2022-07-03T09:30:57;95529.31;;;35.98;28.83
9521;BME280;4798;41.574;23.734;2022-07-03T09:33:26;95531.91;;;35.50;30.44
9521;BME280;4798;41.574;23.734;2022-07-03T09:35:56;95520.50;;;36.07;31.14
9521;BME280;4798;41.574;23.734;2022-07-03T09:38:25;95517.34;;;36.57;31.06
9521;BME280;4798;41.574;23.734;2022-07-03T09:40:54;95524.78;;;35.72;28.81
9521;BME280;4798;41.574;23.734;2022-07-03T09:43:29;95524.19;;;36.00;30.11
9521;BME280;4798;41.574;23.734;2022-07-03T09:46:01;95514.78;;;36.66;28.94
9521;BME280;4798;41.574;23.734;2022-07-03T09:48:31;95452.47;;;36.33;27.77
9521;BME280;4798;41.574;23.734;2022-07-03T09:51:11;95507.16;;;36.38;28.58
9521;BME280;4798;41.574;23.734;2022-07-03T09:53:48;95515.44;;;36.70;27.66
9521;BME280;4798;41.574;23.734;2022-07-03T09:56:25;95509.66;;;36.80;26.64
9521;BME280;4798;41.574;23.734;2022-07-03T09:59:05;95500.22;;;36.13;27.45
9521;BME280;4798;41.574;23.734;2022-07-03T10:01:36;95503.81;;;36.62;27.39
9521;BME280;4798;41.574;23.734;2022-07-03T10:04:16;95508.03;;;35.63;27.13
9521;BME280;4798;41.574;23.734;2022-07-03T10:06:48;95507.56;;;36.04;28.06
9521;BME280;4798;41.574;23.734;2022-07-03T10:09:18;95494.47;;;36.72;27.51
9521;BME280;4798;41.574;23.734;2022-07-03T10:11:47;95496.25;;;37.11;27.17
9521;BME280;4798;41.574;23.734;2022-07-03T10:14:17;95451.84;;;36.41;28.26
9521;BME280;4798;41.574;23.734;2022-07-03T10:16:46;95490.06;;;36.43;27.03
9521;BME280;4798;41.574;23.734;2022-07-03T10:19:18;95480.75;;;36.69;28.11
9521;BME280;4798;41.574;23.734;2022-07-03T10:21:52;95487.13;;;36.33;27.99
9521;BME280;4798;41.574;23.734;2022-07-03T10:24:22;95487.59;;;35.96;28.78
9521;BME280;4798;41.574;23.734;2022-07-03T10:26:52;95488.69;;;36.02;27.95
9521;BME280;4798;41.574;23.734;2022-07-03T10:29:22;95481.41;;;35.92;28.60
9521;BME280;4798;41.574;23.734;2022-07-03T10:31:55;95312.59;;;34.54;27.84
9521;BME280;4798;41.574;23.734;2022-07-03T10:34:26;95472.72;;;35.74;27.22
9521;BME280;4798;41.574;23.734;2022-07-03T10:36:59;95469.53;;;36.11;27.39
9521;BME280;4798;41.574;23.734;2022-07-03T10:39:51;95460.34;;;36.79;28.99
9521;BME280;4798;41.574;23.734;2022-07-03T10:42:34;95459.53;;;36.66;27.63
9521;BME280;4798;41.574;23.734;2022-07-03T10:45:20;95448.22;;;36.60;27.49
9521;BME280;4798;41.574;23.734;2022-07-03T10:47:49;95440.38;;;36.59;28.10
9521;BME280;4798;41.574;23.734;2022-07-03T10:50:19;95446.75;;;36.23;29.11
9521;BME280;4798;41.574;23.734;2022-07-03T10:52:50;95445.63;;;37.27;27.33
9521;BME280;4798;41.574;23.734;2022-07-03T10:55:19;95437.78;;;36.97;26.70
9521;BME280;4798;41.574;23.734;2022-07-03T10:58:08;95444.25;;;37.47;26.25
9521;BME280;4798;41.574;23.734;2022-07-03T11:00:52;95436.88;;;37.16;26.85
9521;BME280;4798;41.574;23.734;2022-07-03T11:03:52;95439.44;;;36.49;28.52
9521;BME280;4798;41.574;23.734;2022-07-03T11:09:30;95432.28;;;36.03;28.35
9521;BME280;4798;41.574;23.734;2022-07-03T11:11:58;95418.22;;;37.32;27.48
9521;BME280;4798;41.574;23.734;2022-07-03T11:14:28;95427.75;;;37.03;28.46
9521;BME280;4798;41.574;23.734;2022-07-03T11:17:17;95418.28;;;36.43;28.44
9521;BME280;4798;41.574;23.734;2022-07-03T11:19:46;95416.06;;;36.38;28.33
9521;BME280;4798;41.574;23.734;2022-07-03T11:22:43;95423.09;;;36.39;28.36
9521;BME280;4798;41.574;23.734;2022-07-03T11:25:14;95418.28;;;37.04;25.82
9521;BME280;4798;41.574;23.734;2022-07-03T11:27:45;95414.03;;;36.70;27.35
9521;BME280;4798;41.574;23.734;2022-07-03T11:30:15;95416.22;;;35.82;29.65
9521;BME280;4798;41.574;23.734;2022-07-03T11:32:53;95415.66;;;34.53;32.59
9521;BME280;4798;41.574;23.734;2022-07-03T11:35:48;95413.22;;;33.62;32.27
9521;BME280;4798;41.574;23.734;2022-07-03T11:38:27;95422.91;;;33.40;33.45
9521;BME280;4798;41.574;23.734;2022-07-03T11:40:59;95417.72;;;33.46;34.35
9521;BME280;4798;41.574;23.734;2022-07-03T11:43:28;95416.53;;;32.83;33.31
9521;BME280;4798;41.574;23.734;2022-07-03T11:45:57;95415.31;;;33.21;34.78
9521;BME280;4798;41.574;23.734;2022-07-03T11:48:26;95406.94;;;33.32;34.30
9521;BME280;4798;41.574;23.734;2022-07-03T11:50:59;95415.75;;;33.76;34.29
9521;BME280;4798;41.574;23.734;2022-07-03T11:53:30;95400.56;;;33.38;33.70
9521;BME280;4798;41.574;23.734;2022-07-03T11:56:02;95407.50;;;33.46;34.48
9521;BME280;4798;41.574;23.734;2022-07-03T11:58:43;95412.28;;;33.96;35.56
9521;BME280;4798;41.574;23.734;2022-07-03T12:01:28;95402.97;;;34.36;35.56
9521;BME280;4798;41.574;23.734;2022-07-03T12:04:05;95395.75;;;34.45;34.94
9521;BME280;4798;41.574;23.734;2022-07-03T12:06:34;95404.16;;;33.88;37.67
9521;BME280;4798;41.574;23.734;2022-07-03T12:09:11;95392.28;;;33.68;36.36
9521;BME280;4798;41.574;23.734;2022-07-03T12:11:41;95404.50;;;33.07;37.34
9521;BME280;4798;41.574;23.734;2022-07-03T12:14:10;95396.84;;;32.91;38.28
9521;BME280;4798;41.574;23.734;2022-07-03T12:16:38;95395.31;;;32.49;38.76
9521;BME280;4798;41.574;23.734;2022-07-03T12:19:07;95393.78;;;32.45;40.88
9521;BME280;4798;41.574;23.734;2022-07-03T12:21:37;95391.25;;;32.24;41.29
9521;BME280;4798;41.574;23.734;2022-07-03T12:24:10;95388.91;;;32.22;39.00
9521;BME280;4798;41.574;23.734;2022-07-03T12:26:40;95390.69;;;32.43;40.61
9521;BME280;4798;41.574;23.734;2022-07-03T12:29:10;95378.09;;;32.45;40.52
9521;BME280;4798;41.574;23.734;2022-07-03T12:31:41;95381.69;;;32.39;40.23
9521;BME280;4798;41.574;23.734;2022-07-03T12:34:11;95332.56;;;32.55;39.38
9521;BME280;4798;41.574;23.734;2022-07-03T12:36:40;95372.41;;;33.31;40.39
9521;BME280;4798;41.574;23.734;2022-07-03T12:39:08;95377.00;;;33.37;39.73
9521;BME280;4798;41.574;23.734;2022-07-03T12:41:37;95365.41;;;32.96;37.28
9521;BME280;4798;41.574;23.734;2022-07-03T12:44:07;95362.59;;;34.10;37.36
9521;BME280;4798;41.574;23.734;2022-07-03T12:46:35;95358.06;;;33.96;35.53
9521;BME280;4798;41.574;23.734;2022-07-03T12:49:08;95363.28;;;34.14;35.67
9521;BME280;4798;41.574;23.734;2022-07-03T12:51:38;95361.13;;;34.25;34.03
9521;BME280;4798;41.574;23.734;2022-07-03T12:54:08;95329.56;;;34.10;33.57
9521;BME280;4798;41.574;23.734;2022-07-03T12:56:37;95280.50;;;34.05;34.08
9521;BME280;4798;41.574;23.734;2022-07-03T12:59:07;95252.47;;;34.13;34.01
9521;BME280;4798;41.574;23.734;2022-07-03T13:02:00;95313.22;;;35.21;33.42
9521;BME280;4798;41.574;23.734;2022-07-03T13:04:36;95350.25;;;36.20;33.41
9521;BME280;4798;41.574;23.734;2022-07-03T13:07:06;95341.53;;;36.21;32.10
9521;BME280;4798;41.574;23.734;2022-07-03T13:09:35;95352.56;;;35.73;32.57
9521;BME280;4798;41.574;23.734;2022-07-03T13:12:04;95345.50;;;35.20;33.94
9521;BME280;4798;41.574;23.734;2022-07-03T13:14:34;95345.44;;;33.99;35.76
9521;BME280;4798;41.574;23.734;2022-07-03T13:17:04;95331.63;;;34.02;36.43
9521;BME280;4798;41.574;23.734;2022-07-03T13:19:32;95355.88;;;33.61;35.87
9521;BME280;4798;41.574;23.734;2022-07-03T13:22:01;95354.13;;;32.87;36.58
9521;BME280;4798;41.574;23.734;2022-07-03T13:24:29;95343.69;;;32.75;37.22
9521;BME280;4798;41.574;23.734;2022-07-03T13:26:57;95352.59;;;33.16;36.12
9521;BME280;4798;41.574;23.734;2022-07-03T13:29:26;95353.84;;;33.11;36.18
9521;BME280;4798;41.574;23.734;2022-07-03T13:31:56;95350.34;;;33.64;35.23